Terminal Aerodrome Forecast
Issued by NWS

Home | Current Version | Previous Version | Graphics & Text | Print | Product List | Glossary On
Versions: 1 2 3 4 5 6 7 8 9 10 11 12 13 14 15 16 17 18
000
FTUS43 KTOP 200700 AAA
TAFFOE
TAF AMD
KFOE 200748Z 2008/2106 19005KT P6SM OVC013
     FM201430 19008KT P6SM SCT013 SCT200=

USA.gov is the U.S. government's official web portal to all federal, state and local government web resources and services.